マヘ島 の空港の天気 - METARとTAF

セーシェル国際空港 ( FSIA / SEZ ) - セーシェル マヘ島
飛行場実況気象(Metar)
観測時間07/29 07:00 SCT (07/29 03:00 UTC)
風向・風速南東 5m/s 瞬間風速10m/s
視程10km以上
天気現象
全天の4割程度の雲 雲底高度 550m
気温26℃
湿度79%
気圧1013hPa
METARFSIA 290300Z 14009G19KT 090V210 9999 SCT018 26/22 Q1013 NOSIG
過去の天気等 Google飛行場航空写真 Wunderground天気予報

過去48時間のMETAR

飛行場予報(TAF)
発表時間: 7/29 03:01 SCT (7/28 23:01 UTC)
予報対象時間: 29日4時 SCT ~ 30日4時 SCT
風向・風速南東 8m/s 瞬間風速 13m/s
視程10km以上
全天の4割程度の雲 雲底高度 670m
29日20時 SCT ~ 29日22時 SCT に徐々に
風向・風速東南東 8m/s
TAF FSIA 282301Z 2900/2924 13015G25KT 9999 SCT022
BECMG 2916/2918 12015KT